createdAt,value
2024-05-09T00:01:28.685Z,10.58
2024-05-09T00:05:30.345Z,10.61
2024-05-09T00:09:32.051Z,10.56
2024-05-09T00:13:33.586Z,10.40
2024-05-09T00:17:35.202Z,10.49
2024-05-09T00:21:41.361Z,10.42
2024-05-09T00:25:43.692Z,10.12
2024-05-09T00:29:45.461Z,10.18
2024-05-09T00:33:47.131Z,10.39
2024-05-09T00:37:48.720Z,10.11
2024-05-09T00:41:50.251Z,10.06
2024-05-09T00:45:51.772Z,10.14
2024-05-09T00:49:53.891Z,9.86
2024-05-09T00:53:55.507Z,9.76
2024-05-09T00:57:57.076Z,9.68
2024-05-09T01:01:59.880Z,9.99
2024-05-09T01:06:01.468Z,9.64
2024-05-09T01:10:04.217Z,9.69
2024-05-09T01:14:07.284Z,9.72
2024-05-09T01:18:11.689Z,9.31
2024-05-09T01:22:14.205Z,9.44
2024-05-09T01:26:15.884Z,9.21
2024-05-09T01:30:21.352Z,8.99
2024-05-09T01:34:29.271Z,9.14
2024-05-09T01:38:30.945Z,9.04
2024-05-09T01:42:32.564Z,9.17
2024-05-09T01:46:34.038Z,8.78
2024-05-09T01:50:39.868Z,8.68
2024-05-09T01:54:43.722Z,8.41
2024-05-09T01:58:45.272Z,8.37
2024-05-09T02:02:46.902Z,8.13
2024-05-09T02:06:48.442Z,8.13
2024-05-09T02:10:50.665Z,8.19
2024-05-09T02:14:52.470Z,8.21
2024-05-09T02:18:54.002Z,7.98
2024-05-09T02:22:55.626Z,8.01
2024-05-09T02:26:57.106Z,8.07
2024-05-09T02:30:58.573Z,8.04
2024-05-09T02:35:00.149Z,8.01
2024-05-09T02:39:01.888Z,7.69
2024-05-09T02:43:03.583Z,7.65
2024-05-09T02:47:05.144Z,7.57
2024-05-09T02:51:06.861Z,7.62
2024-05-09T02:55:08.471Z,7.23
2024-05-09T02:59:10.047Z,7.22
2024-05-09T03:03:14.308Z,7.01
2024-05-09T03:07:19.739Z,6.97
2024-05-09T03:11:25.885Z,6.85
2024-05-09T03:15:27.486Z,6.83
2024-05-09T03:19:29.162Z,6.97
2024-05-09T03:23:30.725Z,6.91
2024-05-09T03:27:32.389Z,6.71
2024-05-09T03:31:33.931Z,6.73
2024-05-09T03:35:35.440Z,6.56
2024-05-09T03:39:36.929Z,6.40
2024-05-09T03:43:38.521Z,6.58
2024-05-09T03:47:40.189Z,6.53
2024-05-09T03:51:41.741Z,6.45
2024-05-09T03:55:43.245Z,6.41
2024-05-09T03:59:44.726Z,6.48
2024-05-09T04:03:46.386Z,6.33
2024-05-09T04:07:48.047Z,6.17
2024-05-09T04:11:49.736Z,6.14
2024-05-09T04:15:51.328Z,5.99
2024-05-09T04:19:52.825Z,6.06
2024-05-09T04:23:54.368Z,6.17
2024-05-09T04:27:55.937Z,6.11
2024-05-09T04:31:57.615Z,6.14
2024-05-09T04:35:59.170Z,5.98
2024-05-09T04:40:00.693Z,6.28
2024-05-09T04:44:02.206Z,6.65
2024-05-09T04:48:04.258Z,6.33
2024-05-09T04:52:06.041Z,6.74
2024-05-09T04:56:07.725Z,6.58
2024-05-09T05:00:14.742Z,6.88
2024-05-09T05:04:23.050Z,7.09
2024-05-09T05:08:24.605Z,8.61
2024-05-09T05:12:26.232Z,11.69
2024-05-09T05:16:27.809Z,12.68
2024-05-09T05:20:33.560Z,16.32
2024-05-09T05:24:35.885Z,17.91
2024-05-09T05:28:37.397Z,18.95
2024-05-09T05:32:39.066Z,18.93
2024-05-09T05:36:40.651Z,20.11
2024-05-09T05:40:42.333Z,16.67
2024-05-09T05:44:43.808Z,19.32
2024-05-09T05:48:45.498Z,19.46
2024-05-09T05:52:47.085Z,19.24
2024-05-09T05:56:48.585Z,19.17
2024-05-09T06:00:50.790Z,20.40
2024-05-09T06:04:52.451Z,19.14
2024-05-09T06:08:54.600Z,18.62
2024-05-09T06:12:56.252Z,19.38
2024-05-09T06:16:58.419Z,20.19
2024-05-09T06:20:59.964Z,20.86
2024-05-09T06:25:01.486Z,20.71
2024-05-09T06:29:03.206Z,20.94
2024-05-09T06:33:06.079Z,18.87
2024-05-09T06:37:07.860Z,18.22
2024-05-09T06:41:09.412Z,19.37
2024-05-09T06:45:10.921Z,19.24
2024-05-09T06:49:12.571Z,17.41
2024-05-09T06:53:15.613Z,18.12
2024-05-09T06:57:17.144Z,18.09
2024-05-09T07:01:18.701Z,19.25
2024-05-09T07:05:20.400Z,19.88
2024-05-09T07:09:21.962Z,20.28
2024-05-09T07:13:23.470Z,17.28
2024-05-09T07:17:25.096Z,18.61
2024-05-09T07:21:26.704Z,19.10
2024-05-09T07:25:28.196Z,17.44
2024-05-09T07:29:29.846Z,17.82
2024-05-09T07:33:31.549Z,15.60
2024-05-09T07:37:33.134Z,16.59
2024-05-09T07:41:35.105Z,16.99
2024-05-09T07:45:48.384Z,17.85
2024-05-09T07:54:00.962Z,17.98
2024-05-09T07:58:03.294Z,18.03
2024-05-09T08:02:05.911Z,18.97
2024-05-09T08:06:07.602Z,18.79
2024-05-09T08:10:12.741Z,18.30
2024-05-09T08:14:14.572Z,19.09
2024-05-09T08:18:16.177Z,19.06
2024-05-09T08:22:17.825Z,17.88
2024-05-09T08:26:19.311Z,18.79
2024-05-09T08:30:25.445Z,18.90
2024-05-09T08:34:34.135Z,18.95
2024-05-09T08:38:35.703Z,18.93
2024-05-09T08:42:44.800Z,18.40
2024-05-09T08:46:47.672Z,19.74
2024-05-09T08:50:51.545Z,19.53
2024-05-09T08:54:53.163Z,19.58
2024-05-09T08:58:59.071Z,19.50
2024-05-09T09:03:02.630Z,18.81
2024-05-09T09:07:05.927Z,18.88
2024-05-09T09:11:07.473Z,18.17
2024-05-09T09:15:09.205Z,19.18
2024-05-09T09:19:10.790Z,19.46
2024-05-09T09:23:12.564Z,19.85
2024-05-09T09:27:14.415Z,19.24
2024-05-09T09:31:19.320Z,18.34
2024-05-09T09:35:20.900Z,18.93
2024-05-09T09:39:27.438Z,19.19
2024-05-09T09:43:29.975Z,19.00
2024-05-09T09:47:32.997Z,19.59
2024-05-09T09:51:35.970Z,19.42
2024-05-09T09:55:39.504Z,18.21
2024-05-09T09:59:44.010Z,18.11
2024-05-09T10:03:45.695Z,19.23
2024-05-09T10:07:47.561Z,18.78
2024-05-09T10:11:52.448Z,18.90
2024-05-09T10:16:07.815Z,18.24
2024-05-09T10:20:17.968Z,19.55
2024-05-09T10:24:23.072Z,19.06
2024-05-09T10:28:32.359Z,17.79
2024-05-09T10:32:40.579Z,19.30
2024-05-09T10:36:42.252Z,19.62
2024-05-09T10:40:45.640Z,19.43
2024-05-09T10:44:47.113Z,19.67
2024-05-09T10:48:49.068Z,19.66
2024-05-09T10:52:53.041Z,19.61
2024-05-09T10:56:57.664Z,19.69
2024-05-09T11:01:00.650Z,18.50
2024-05-09T11:05:03.384Z,18.31
2024-05-09T11:09:05.157Z,18.55
2024-05-09T11:13:06.736Z,18.57
2024-05-09T11:17:08.456Z,18.79
2024-05-09T11:21:13.903Z,18.95
2024-05-09T11:25:18.102Z,18.87
2024-05-09T11:29:20.015Z,19.89
2024-05-09T11:33:21.830Z,20.51
2024-05-09T11:37:23.351Z,20.34
2024-05-09T11:41:24.831Z,19.89
2024-05-09T11:45:26.314Z,19.72
2024-05-09T11:49:27.863Z,19.50
2024-05-09T11:53:29.371Z,19.30
2024-05-09T11:57:30.990Z,19.36
2024-05-09T12:01:32.716Z,19.37
2024-05-09T12:05:34.718Z,19.02
2024-05-09T12:09:36.468Z,18.11
2024-05-09T12:13:37.959Z,17.82
2024-05-09T12:17:39.495Z,18.04
2024-05-09T12:21:41.084Z,18.26
2024-05-09T12:25:42.711Z,18.57
2024-05-09T12:29:44.300Z,19.64
2024-05-09T12:33:46.234Z,19.95
2024-05-09T12:37:47.775Z,19.99
2024-05-09T12:41:49.266Z,19.35
2024-05-09T12:45:50.805Z,19.42
2024-05-09T12:49:52.416Z,19.30
2024-05-09T12:53:54.059Z,20.20
2024-05-09T12:57:55.759Z,20.32
2024-05-09T13:01:59.550Z,20.08
2024-05-09T13:06:02.066Z,19.27
2024-05-09T13:10:04.640Z,18.65
2024-05-09T13:14:07.129Z,18.58
2024-05-09T13:18:09.244Z,18.85
2024-05-09T13:22:10.868Z,19.33
2024-05-09T13:26:12.527Z,19.08
2024-05-09T13:30:21.770Z,18.73
2024-05-09T13:34:30.574Z,18.63
2024-05-09T13:38:32.201Z,18.72
2024-05-09T13:42:33.812Z,18.69
2024-05-09T13:46:35.660Z,18.70
2024-05-09T13:50:37.391Z,18.93
2024-05-09T13:54:39.029Z,19.54
2024-05-09T13:58:40.839Z,20.31
2024-05-09T14:02:42.440Z,20.59
2024-05-09T14:06:44.210Z,19.81
2024-05-09T14:10:46.097Z,20.30
2024-05-09T14:14:47.755Z,19.63
2024-05-09T14:18:49.373Z,19.24
2024-05-09T14:22:50.886Z,19.10
2024-05-09T14:26:52.460Z,19.26
2024-05-09T14:30:53.973Z,19.72
2024-05-09T14:34:55.548Z,19.72
2024-05-09T14:38:57.063Z,19.49
2024-05-09T14:43:01.085Z,20.19
2024-05-09T14:47:04.242Z,20.05
2024-05-09T14:51:05.894Z,19.43
2024-05-09T14:55:10.109Z,18.76
2024-05-09T14:59:13.280Z,19.26
2024-05-09T15:03:14.809Z,18.97
2024-05-09T15:07:16.475Z,18.58
2024-05-09T15:11:18.039Z,18.40
2024-05-09T15:15:19.587Z,18.41
2024-05-09T15:19:21.419Z,18.64
2024-05-09T15:23:22.962Z,19.02
2024-05-09T15:27:24.459Z,19.29
2024-05-09T15:31:26.104Z,19.82
2024-05-09T15:35:27.745Z,19.55
2024-05-09T15:39:29.703Z,20.11
2024-05-09T15:43:31.474Z,19.93
2024-05-09T15:47:34.632Z,20.52
2024-05-09T15:51:36.197Z,19.82
2024-05-09T15:55:38.321Z,20.18
2024-05-09T15:59:40.195Z,20.16
2024-05-09T16:03:41.829Z,19.99
2024-05-09T16:07:43.467Z,19.27
2024-05-09T16:11:44.960Z,19.54
2024-05-09T16:15:46.727Z,19.30
2024-05-09T16:19:48.367Z,19.12
2024-05-09T16:23:49.994Z,18.80
2024-05-09T16:27:51.838Z,18.85
2024-05-09T16:31:53.442Z,18.67
2024-05-09T16:35:54.991Z,19.43
2024-05-09T16:39:56.556Z,18.83
2024-05-09T16:43:58.025Z,18.93
2024-05-09T16:48:00.330Z,19.35
2024-05-09T16:52:02.144Z,19.42
2024-05-09T16:56:04.016Z,19.40
2024-05-09T17:00:11.749Z,19.14
2024-05-09T17:04:21.739Z,19.13
2024-05-09T17:08:23.573Z,18.20
2024-05-09T17:12:26.137Z,18.70
2024-05-09T17:16:28.192Z,19.02
2024-05-09T17:20:34.275Z,18.67
2024-05-09T17:24:38.025Z,18.47
2024-05-09T17:28:39.599Z,18.31
2024-05-09T17:32:41.151Z,18.13
2024-05-09T17:36:42.835Z,17.68
2024-05-09T17:40:44.955Z,17.71
2024-05-09T17:44:46.440Z,17.66
2024-05-09T17:48:48.032Z,17.60
2024-05-09T17:52:49.632Z,16.03
2024-05-09T17:56:51.162Z,15.89
2024-05-09T18:00:52.799Z,15.42
2024-05-09T18:04:54.585Z,15.18
2024-05-09T18:08:56.204Z,14.85
2024-05-09T18:12:57.743Z,14.40
2024-05-09T18:16:59.321Z,14.15
2024-05-09T18:21:00.811Z,13.97
2024-05-09T18:25:02.494Z,13.70
2024-05-09T18:29:04.508Z,13.47
2024-05-09T18:33:08.162Z,13.22
2024-05-09T18:37:10.390Z,12.94
2024-05-09T18:41:11.965Z,12.87
2024-05-09T18:45:13.544Z,12.65
2024-05-09T18:49:15.255Z,12.60
2024-05-09T18:53:16.986Z,12.47
2024-05-09T18:57:18.535Z,12.27
2024-05-09T19:01:20.190Z,12.17
2024-05-09T19:05:21.977Z,12.06
2024-05-09T19:09:23.684Z,11.87
2024-05-09T19:13:25.368Z,11.76
2024-05-09T19:17:28.161Z,11.69
2024-05-09T19:21:30.340Z,11.55
2024-05-09T19:25:32.901Z,11.35
2024-05-09T19:29:34.410Z,11.18
2024-05-09T19:33:35.997Z,11.15
2024-05-09T19:37:37.674Z,11.00
2024-05-09T19:41:39.134Z,10.89
2024-05-09T19:45:40.675Z,10.72
2024-05-09T19:49:42.238Z,10.70
2024-05-09T19:53:43.752Z,10.62
2024-05-09T19:57:45.265Z,10.51
2024-05-09T20:01:46.981Z,10.41
2024-05-09T20:05:48.773Z,10.35
2024-05-09T20:09:50.528Z,10.31
2024-05-09T20:13:52.133Z,10.16
2024-05-09T20:17:54.366Z,10.14
2024-05-09T20:21:56.056Z,9.92
2024-05-09T20:25:57.653Z,9.84
2024-05-09T20:29:59.312Z,9.80
2024-05-09T20:34:00.938Z,9.53
2024-05-09T20:38:03.665Z,9.43
2024-05-09T20:42:07.915Z,9.43
2024-05-09T20:46:09.397Z,9.43
2024-05-09T20:50:20.262Z,9.33
2024-05-09T20:54:29.888Z,9.14
2024-05-09T20:58:31.430Z,9.19
2024-05-09T21:02:33.149Z,9.18
2024-05-09T21:06:34.814Z,8.93
2024-05-09T21:10:37.015Z,8.69
2024-05-09T21:14:38.983Z,8.58
2024-05-09T21:18:40.544Z,8.57
2024-05-09T21:22:43.749Z,8.56
2024-05-09T21:26:45.135Z,8.55
2024-05-09T21:30:46.711Z,8.39
2024-05-09T21:34:48.431Z,8.21
2024-05-09T21:38:49.998Z,8.20
2024-05-09T21:42:51.592Z,8.00
2024-05-09T21:46:55.658Z,8.06
2024-05-09T21:50:57.166Z,7.93
2024-05-09T21:54:58.723Z,7.83
2024-05-09T21:59:00.228Z,7.85
2024-05-09T22:03:02.307Z,7.81
2024-05-09T22:07:04.301Z,7.77
2024-05-09T22:11:06.272Z,7.75
2024-05-09T22:15:07.969Z,7.68
2024-05-09T22:19:09.607Z,7.47
2024-05-09T22:23:11.403Z,7.62
2024-05-09T22:27:12.876Z,7.89
2024-05-09T22:31:14.397Z,8.21
2024-05-09T22:35:15.941Z,7.47
2024-05-09T22:39:17.503Z,7.48
2024-05-09T22:43:20.792Z,7.19
2024-05-09T22:47:23.943Z,7.26
2024-05-09T22:51:25.433Z,7.21
2024-05-09T22:55:26.917Z,7.14
2024-05-09T22:59:29.546Z,7.19
2024-05-09T23:03:32.769Z,7.20
2024-05-09T23:07:34.389Z,7.04
2024-05-09T23:11:35.911Z,6.85
2024-05-09T23:15:37.549Z,6.92
2024-05-09T23:19:39.325Z,6.74
2024-05-09T23:23:42.147Z,6.77
2024-05-09T23:27:43.634Z,6.87
2024-05-09T23:31:45.132Z,6.81
2024-05-09T23:35:46.592Z,6.60
2024-05-09T23:39:48.138Z,6.47
2024-05-09T23:43:49.832Z,6.44
2024-05-09T23:47:51.505Z,6.40
2024-05-09T23:51:53.098Z,6.47
2024-05-09T23:55:54.645Z,6.49
2024-05-09T23:59:56.128Z,6.63
